createdAt,value
2018-12-25T00:00:24.665Z,5.80
2018-12-25T00:03:12.695Z,5.70
2018-12-25T00:06:00.846Z,5.70
2018-12-25T00:08:48.949Z,5.60
2018-12-25T00:14:31.026Z,5.60
2018-12-25T00:17:19.067Z,5.60
2018-12-25T00:20:07.183Z,5.60
2018-12-25T00:22:55.410Z,5.60
2018-12-25T00:25:43.556Z,5.50
2018-12-25T00:28:31.519Z,5.50
2018-12-25T00:31:19.603Z,5.50
2018-12-25T00:34:07.680Z,5.50
2018-12-25T00:36:55.666Z,5.60
2018-12-25T00:39:43.884Z,5.70
2018-12-25T00:42:32.040Z,5.70
2018-12-25T00:45:12.698Z,5.70
2018-12-25T00:47:53.231Z,5.60
2018-12-25T00:50:33.826Z,5.60
2018-12-25T00:53:15.177Z,5.70
2018-12-25T00:55:55.758Z,5.60
2018-12-25T00:58:37.068Z,5.60
2018-12-25T01:01:17.898Z,5.60
2018-12-25T01:03:58.307Z,5.60
2018-12-25T01:06:38.979Z,5.60
2018-12-25T01:09:19.506Z,5.60
2018-12-25T01:11:48.256Z,5.60
2018-12-25T01:14:36.254Z,5.70
2018-12-25T01:17:24.248Z,5.60
2018-12-25T01:20:12.427Z,5.70
2018-12-25T01:23:00.598Z,5.70
2018-12-25T01:25:48.707Z,5.60
2018-12-25T01:28:36.780Z,5.70
2018-12-25T01:31:24.753Z,5.60
2018-12-25T01:34:12.902Z,5.60
2018-12-25T01:36:42.111Z,5.60
2018-12-25T01:39:30.115Z,5.60
2018-12-25T01:41:58.815Z,5.60
2018-12-25T01:44:46.828Z,5.50
2018-12-25T01:47:27.528Z,5.50
2018-12-25T01:50:08.406Z,5.60
2018-12-25T01:52:37.137Z,5.50
2018-12-25T01:55:06.752Z,5.40
2018-12-25T01:57:35.507Z,5.40
2018-12-25T02:00:23.979Z,5.40
2018-12-25T02:03:12.013Z,5.50
2018-12-25T02:06:00.354Z,5.60
2018-12-25T02:08:48.337Z,5.50
2018-12-25T02:11:36.302Z,5.50
2018-12-25T02:14:24.394Z,5.50
2018-12-25T02:17:12.403Z,5.50
2018-12-25T02:20:00.411Z,5.50
2018-12-25T02:22:48.704Z,5.40
2018-12-25T02:25:36.709Z,5.50
2018-12-25T02:28:24.928Z,5.50
2018-12-25T02:31:13.027Z,5.50
2018-12-25T02:37:08.406Z,5.50
2018-12-25T02:43:03.669Z,5.40
2018-12-25T02:45:32.400Z,5.40
2018-12-25T02:48:20.494Z,5.40
2018-12-25T02:51:01.503Z,5.40
2018-12-25T02:53:42.245Z,5.40
2018-12-25T02:56:22.744Z,5.30
2018-12-25T02:59:03.640Z,5.30
2018-12-25T03:01:44.519Z,5.30
2018-12-25T03:04:25.374Z,5.20
2018-12-25T03:07:05.965Z,5.30
2018-12-25T03:09:47.305Z,5.30
2018-12-25T03:12:27.901Z,5.20
2018-12-25T03:15:08.538Z,5.20
2018-12-25T03:17:49.264Z,5.20
2018-12-25T03:20:30.556Z,5.20
2018-12-25T03:25:53.019Z,5.20
2018-12-25T03:28:21.917Z,5.30
2018-12-25T03:31:10.077Z,5.30
2018-12-25T03:33:39.062Z,5.30
2018-12-25T03:42:09.030Z,5.20
2018-12-25T03:44:57.114Z,5.20
2018-12-25T03:47:38.419Z,5.20
2018-12-25T03:50:10.842Z,5.20
2018-12-25T03:52:58.086Z,5.10
2018-12-25T03:55:46.209Z,5.10
2018-12-25T03:58:34.322Z,5.10
2018-12-25T04:01:22.404Z,5.10
2018-12-25T04:04:10.424Z,5.10
2018-12-25T04:06:58.421Z,5.10
2018-12-25T04:09:46.481Z,5.10
2018-12-25T04:15:28.405Z,5.10
2018-12-25T04:18:16.481Z,5.10
2018-12-25T04:21:04.575Z,5.10
2018-12-25T04:26:59.674Z,5.20
2018-12-25T04:29:28.507Z,5.20
2018-12-25T04:35:25.455Z,5.30
2018-12-25T04:37:54.328Z,5.20
2018-12-25T04:43:17.159Z,5.20
2018-12-25T04:48:46.867Z,5.10
2018-12-25T04:51:27.631Z,5.10
2018-12-25T04:53:56.307Z,5.10
2018-12-25T04:56:44.306Z,5.20
2018-12-25T04:59:32.304Z,5.20
2018-12-25T05:02:20.331Z,5.20
2018-12-25T05:05:08.403Z,5.20
2018-12-25T05:07:56.405Z,5.10
2018-12-25T05:10:44.486Z,5.10
2018-12-25T05:13:32.581Z,5.10
2018-12-25T05:19:27.751Z,5.00
2018-12-25T05:22:15.842Z,5.00
2018-12-25T05:25:03.893Z,5.10
2018-12-25T05:27:51.930Z,5.00
2018-12-25T05:30:39.968Z,5.10
2018-12-25T05:33:28.023Z,5.00
2018-12-25T05:36:16.063Z,5.00
2018-12-25T05:39:05.598Z,5.00
2018-12-25T05:41:53.650Z,5.00
2018-12-25T05:44:43.405Z,5.00
2018-12-25T05:47:24.758Z,5.10
2018-12-25T05:50:05.771Z,5.10
2018-12-25T05:52:46.339Z,5.00
2018-12-25T05:55:26.924Z,5.00
2018-12-25T05:58:07.517Z,5.00
2018-12-25T06:00:48.251Z,5.00
2018-12-25T06:03:29.069Z,5.00
2018-12-25T06:06:09.755Z,5.10
2018-12-25T06:08:50.267Z,5.10
2018-12-25T06:11:31.339Z,5.20
2018-12-25T06:14:12.472Z,5.20
2018-12-25T06:16:53.158Z,5.20
2018-12-25T06:19:33.866Z,5.20
2018-12-25T06:22:02.683Z,5.20
2018-12-25T06:24:50.784Z,5.20
2018-12-25T06:27:38.854Z,5.20
2018-12-25T06:30:27.015Z,5.20
2018-12-25T06:33:15.041Z,5.20
2018-12-25T06:36:02.997Z,5.20
2018-12-25T06:38:51.057Z,5.20
2018-12-25T06:41:39.315Z,5.20
2018-12-25T06:44:08.153Z,5.20
2018-12-25T06:46:56.163Z,5.20
2018-12-25T06:49:44.142Z,5.20
2018-12-25T06:52:32.200Z,5.20
2018-12-25T06:55:20.487Z,5.20
2018-12-25T06:58:08.492Z,5.20
2018-12-25T07:00:56.500Z,5.20
2018-12-25T07:03:44.574Z,5.30
2018-12-25T07:06:32.691Z,5.20
2018-12-25T07:09:20.636Z,5.20
2018-12-25T07:12:08.726Z,5.20
2018-12-25T07:14:56.715Z,5.30
2018-12-25T07:17:44.733Z,5.20
2018-12-25T07:20:32.804Z,5.20
2018-12-25T07:23:20.803Z,5.20
2018-12-25T07:26:08.769Z,5.20
2018-12-25T07:28:56.841Z,5.20
2018-12-25T07:31:44.909Z,5.20
2018-12-25T07:34:32.910Z,5.20
2018-12-25T07:37:20.902Z,5.20
2018-12-25T07:40:08.938Z,5.30
2018-12-25T07:42:56.980Z,5.30
2018-12-25T07:45:45.035Z,5.30
2018-12-25T07:48:25.467Z,5.20
2018-12-25T07:51:06.210Z,5.40
2018-12-25T07:53:47.112Z,5.50
2018-12-25T07:56:27.919Z,5.60
2018-12-25T07:59:08.715Z,5.50
2018-12-25T08:01:50.186Z,5.40
2018-12-25T08:04:30.556Z,5.40
2018-12-25T08:07:11.408Z,5.40
2018-12-25T08:09:51.947Z,5.50
2018-12-25T08:12:32.734Z,5.50
2018-12-25T08:15:01.504Z,5.50
2018-12-25T08:17:49.638Z,5.50
2018-12-25T08:20:37.639Z,5.50
2018-12-25T08:23:25.742Z,5.50
2018-12-25T08:26:13.745Z,5.50
2018-12-25T08:29:01.710Z,5.60
2018-12-25T08:31:49.752Z,5.60
2018-12-25T08:34:37.758Z,5.60
2018-12-25T08:37:25.749Z,5.60
2018-12-25T08:40:13.757Z,5.70
2018-12-25T08:43:01.854Z,5.70
2018-12-25T08:45:50.006Z,5.70
2018-12-25T08:48:31.405Z,5.80
2018-12-25T08:51:11.914Z,5.80
2018-12-25T08:53:52.912Z,5.80
2018-12-25T08:56:33.642Z,5.80
2018-12-25T08:59:14.506Z,5.80
2018-12-25T09:01:55.323Z,5.80
2018-12-25T09:04:35.969Z,5.80
2018-12-25T09:07:16.627Z,5.90
2018-12-25T09:09:57.896Z,5.80
2018-12-25T09:12:38.749Z,5.80
2018-12-25T09:15:19.427Z,5.80
2018-12-25T09:18:00.483Z,5.80
2018-12-25T09:20:41.250Z,5.70
2018-12-25T09:23:21.593Z,5.70
2018-12-25T09:26:02.331Z,5.70
2018-12-25T09:28:43.492Z,5.80
2018-12-25T09:31:12.334Z,5.90
2018-12-25T09:33:41.053Z,5.90
2018-12-25T09:36:29.064Z,6.00
2018-12-25T09:39:17.202Z,5.90
2018-12-25T09:42:05.668Z,5.90
2018-12-25T09:44:34.397Z,5.90
2018-12-25T09:47:03.184Z,5.90
2018-12-25T09:52:26.093Z,5.90
2018-12-25T09:55:14.127Z,5.90
2018-12-25T09:58:02.154Z,6.00
2018-12-25T10:00:30.922Z,6.20
2018-12-25T10:03:19.011Z,6.30
2018-12-25T10:06:07.374Z,6.20
2018-12-25T10:08:55.522Z,6.20
2018-12-25T10:11:44.586Z,6.20
2018-12-25T10:14:13.720Z,6.20
2018-12-25T10:16:42.599Z,6.20
2018-12-25T10:22:18.598Z,6.40
2018-12-25T10:25:06.607Z,6.40
2018-12-25T10:27:54.683Z,6.50
2018-12-25T10:30:42.926Z,6.70
2018-12-25T10:33:31.175Z,6.60
2018-12-25T10:36:19.159Z,6.70
2018-12-25T10:39:07.315Z,6.70
2018-12-25T10:41:36.132Z,6.70
2018-12-25T10:44:24.158Z,6.80
2018-12-25T10:46:52.975Z,6.90
2018-12-25T10:49:22.681Z,6.70
2018-12-25T10:52:11.711Z,6.80
2018-12-25T10:54:41.703Z,6.80
2018-12-25T10:57:29.854Z,6.80
2018-12-25T11:00:17.927Z,6.70
2018-12-25T11:03:06.156Z,6.60
2018-12-25T11:05:54.368Z,6.70
2018-12-25T11:08:42.409Z,6.70
2018-12-25T11:11:30.922Z,6.70
2018-12-25T11:14:19.205Z,6.80
2018-12-25T11:16:48.052Z,6.80
2018-12-25T11:19:16.891Z,6.90
2018-12-25T11:22:04.969Z,7.00
2018-12-25T11:24:33.776Z,7.10
2018-12-25T11:27:02.655Z,7.00
2018-12-25T11:29:31.637Z,7.20
2018-12-25T11:32:19.646Z,7.20
2018-12-25T11:34:48.726Z,7.30
2018-12-25T11:40:45.852Z,7.20
2018-12-25T11:43:34.215Z,7.40
2018-12-25T11:46:03.141Z,7.40
2018-12-25T11:48:51.163Z,7.40
2018-12-25T11:51:32.139Z,7.30
2018-12-25T11:54:12.898Z,7.30
2018-12-25T11:56:53.780Z,7.30
2018-12-25T11:59:34.534Z,7.30
2018-12-25T12:02:17.233Z,7.30
2018-12-25T12:04:58.299Z,7.30
2018-12-25T12:07:39.134Z,7.20
2018-12-25T12:10:19.990Z,7.10
2018-12-25T12:13:00.784Z,7.20
2018-12-25T12:15:41.606Z,7.20
2018-12-25T12:18:22.352Z,7.20
2018-12-25T12:21:02.992Z,7.30
2018-12-25T12:23:44.201Z,7.30
2018-12-25T12:26:25.555Z,7.30
2018-12-25T12:29:06.215Z,7.30
2018-12-25T12:31:46.591Z,7.50
2018-12-25T12:34:27.505Z,7.40
2018-12-25T12:37:08.750Z,7.50
2018-12-25T12:39:49.815Z,7.50
2018-12-25T12:42:30.748Z,7.50
2018-12-25T12:45:11.400Z,7.40
2018-12-25T12:47:52.139Z,7.30
2018-12-25T12:53:15.535Z,7.40
2018-12-25T12:55:56.539Z,7.40
2018-12-25T12:58:37.578Z,7.40
2018-12-25T13:01:18.419Z,7.40
2018-12-25T13:03:59.399Z,7.40
2018-12-25T13:06:40.257Z,7.30
2018-12-25T13:09:20.938Z,7.20
2018-12-25T13:12:01.711Z,7.30
2018-12-25T13:14:42.236Z,7.20
2018-12-25T13:17:25.702Z,7.30
2018-12-25T13:20:06.492Z,7.30
2018-12-25T13:22:54.023Z,7.30
2018-12-25T13:25:30.464Z,7.20
2018-12-25T13:28:11.530Z,7.30
2018-12-25T13:30:52.126Z,7.20
2018-12-25T13:33:31.203Z,7.20
2018-12-25T13:36:19.236Z,7.20
2018-12-25T13:39:07.354Z,7.10
2018-12-25T13:41:55.466Z,7.00
2018-12-25T13:44:43.467Z,7.10
2018-12-25T13:47:31.469Z,7.20
2018-12-25T13:50:19.492Z,7.10
2018-12-25T13:53:03.017Z,7.10
2018-12-25T13:55:43.536Z,7.10
2018-12-25T13:58:24.551Z,7.10
2018-12-25T14:01:05.494Z,7.10
2018-12-25T14:03:46.890Z,7.00
2018-12-25T14:06:28.284Z,7.00
2018-12-25T14:12:10.299Z,7.00
2018-12-25T14:14:39.103Z,7.10
2018-12-25T14:17:27.059Z,7.10
2018-12-25T14:20:15.068Z,7.00
2018-12-25T14:23:11.039Z,6.90
2018-12-25T14:25:52.929Z,6.90
2018-12-25T14:28:40.969Z,6.90
2018-12-25T14:31:29.005Z,7.00
2018-12-25T14:34:17.031Z,7.00
2018-12-25T14:37:05.126Z,6.90
2018-12-25T14:39:53.448Z,6.90
2018-12-25T14:42:41.880Z,6.90
2018-12-25T14:45:29.909Z,6.80
2018-12-25T14:48:17.916Z,6.80
2018-12-25T14:50:58.980Z,6.80
2018-12-25T14:53:39.468Z,6.80
2018-12-25T14:56:20.601Z,6.80
2018-12-25T14:59:01.455Z,6.80
2018-12-25T15:01:42.282Z,6.70
2018-12-25T15:04:23.279Z,6.70
2018-12-25T15:07:04.351Z,6.60
2018-12-25T15:09:45.142Z,6.70
2018-12-25T15:12:25.864Z,6.70
2018-12-25T15:15:07.518Z,6.60
2018-12-25T15:17:52.201Z,6.70
2018-12-25T15:20:33.213Z,6.70
2018-12-25T15:23:13.915Z,6.60
2018-12-25T15:25:54.520Z,6.70
2018-12-25T15:28:35.803Z,6.60
2018-12-25T15:31:17.124Z,6.50
2018-12-25T15:33:57.915Z,6.40
2018-12-25T15:36:38.945Z,6.30
2018-12-25T15:39:19.415Z,6.30
2018-12-25T15:42:00.237Z,6.30
2018-12-25T15:44:41.699Z,6.30
2018-12-25T15:47:22.348Z,6.20
2018-12-25T15:50:03.364Z,6.10
2018-12-25T15:52:44.507Z,6.10
2018-12-25T15:55:25.103Z,6.20
2018-12-25T15:58:05.841Z,6.10
2018-12-25T16:00:46.630Z,6.20
2018-12-25T16:03:27.697Z,6.10
2018-12-25T16:06:08.256Z,6.10
2018-12-25T16:08:48.889Z,6.10
2018-12-25T16:11:30.083Z,6.10
2018-12-25T16:14:10.770Z,6.10
2018-12-25T16:16:51.158Z,6.10
2018-12-25T16:19:31.896Z,6.10
2018-12-25T16:22:12.735Z,6.10
2018-12-25T16:24:53.565Z,6.20
2018-12-25T16:27:34.283Z,6.10
2018-12-25T16:30:14.960Z,6.10
2018-12-25T16:32:56.048Z,6.10
2018-12-25T16:35:36.965Z,6.10
2018-12-25T16:38:17.666Z,6.10
2018-12-25T16:40:59.047Z,6.10
2018-12-25T16:43:39.700Z,6.10
2018-12-25T16:46:20.409Z,6.00
2018-12-25T16:49:01.239Z,6.00
2018-12-25T16:51:42.473Z,6.00
2018-12-25T16:54:23.098Z,6.00
2018-12-25T16:57:03.768Z,6.10
2018-12-25T16:59:44.571Z,6.10
2018-12-25T17:02:25.348Z,6.10
2018-12-25T17:05:06.027Z,6.00
2018-12-25T17:07:46.726Z,6.10
2018-12-25T17:10:27.813Z,6.10
2018-12-25T17:13:08.546Z,6.10
2018-12-25T17:15:49.575Z,6.10
2018-12-25T17:18:30.282Z,6.10
2018-12-25T17:21:11.101Z,6.10
2018-12-25T17:23:52.279Z,6.10
2018-12-25T17:26:33.056Z,6.10
2018-12-25T17:29:13.957Z,6.10
2018-12-25T17:31:54.655Z,6.00
2018-12-25T17:34:35.563Z,6.00
2018-12-25T17:37:16.307Z,6.10
2018-12-25T17:39:57.366Z,6.00
2018-12-25T17:42:38.234Z,6.00
2018-12-25T17:45:18.951Z,5.90
2018-12-25T17:47:55.634Z,5.90
2018-12-25T17:50:44.241Z,6.00
2018-12-25T17:53:35.393Z,6.00
2018-12-25T18:00:16.722Z,6.00
2018-12-25T18:02:35.043Z,5.90
2018-12-25T18:05:23.428Z,5.90
2018-12-25T18:08:05.805Z,5.90
2018-12-25T18:10:49.257Z,5.80
2018-12-25T18:13:34.500Z,5.90
2018-12-25T18:16:15.719Z,5.90
2018-12-25T18:19:00.029Z,5.90
2018-12-25T18:21:41.769Z,5.90
2018-12-25T18:24:23.130Z,6.00
2018-12-25T18:27:04.192Z,6.00
2018-12-25T18:29:47.686Z,6.00
2018-12-25T18:32:22.263Z,5.90
2018-12-25T18:35:29.549Z,6.00
2018-12-25T18:41:45.468Z,5.80
2018-12-25T18:44:33.479Z,5.80
2018-12-25T18:47:21.654Z,5.70
2018-12-25T18:49:50.350Z,5.70
2018-12-25T18:52:38.435Z,5.60
2018-12-25T18:55:07.549Z,5.60
2018-12-25T18:57:55.761Z,5.60
2018-12-25T19:00:43.960Z,5.60
2018-12-25T19:03:31.944Z,5.60
2018-12-25T19:06:19.975Z,5.60
2018-12-25T19:09:00.973Z,5.60
2018-12-25T19:11:41.770Z,5.70
2018-12-25T19:14:22.618Z,5.70
2018-12-25T19:17:03.078Z,5.70
2018-12-25T19:19:44.030Z,5.70
2018-12-25T19:22:24.919Z,5.70
2018-12-25T19:25:05.962Z,5.60
2018-12-25T19:27:46.581Z,5.60
2018-12-25T19:30:28.046Z,5.70
2018-12-25T19:33:09.448Z,5.70
2018-12-25T19:35:50.251Z,5.70
2018-12-25T19:38:19.051Z,5.60
2018-12-25T19:41:07.168Z,5.60
2018-12-25T19:43:55.528Z,5.60
2018-12-25T19:46:43.750Z,5.60
2018-12-25T19:49:31.775Z,5.60
2018-12-25T19:52:19.783Z,5.50
2018-12-25T19:55:00.901Z,5.50
2018-12-25T19:57:41.351Z,5.40
2018-12-25T20:00:22.542Z,5.50
2018-12-25T20:03:03.264Z,5.50
2018-12-25T20:05:43.790Z,5.50
2018-12-25T20:08:24.766Z,5.50
2018-12-25T20:11:05.287Z,5.40
2018-12-25T20:14:10.100Z,5.50
2018-12-25T20:17:17.405Z,5.40
2018-12-25T20:20:15.857Z,5.40
2018-12-25T20:23:23.116Z,5.30
2018-12-25T20:26:30.444Z,5.30
2018-12-25T20:29:37.760Z,5.30
2018-12-25T20:32:45.143Z,5.40
2018-12-25T20:35:52.404Z,5.40
2018-12-25T20:38:59.706Z,5.40
2018-12-25T20:42:06.961Z,5.30
2018-12-25T20:45:14.210Z,5.30
2018-12-25T20:48:22.362Z,5.20
2018-12-25T20:51:29.725Z,5.20
2018-12-25T20:54:10.381Z,5.10
2018-12-25T20:56:50.952Z,5.20
2018-12-25T20:59:58.282Z,5.30
2018-12-25T21:03:05.781Z,5.20
2018-12-25T21:06:13.063Z,5.20
2018-12-25T21:09:20.321Z,5.20
2018-12-25T21:12:27.566Z,5.10
2018-12-25T21:15:34.854Z,5.00
2018-12-25T21:18:42.602Z,5.00
2018-12-25T21:21:49.932Z,5.00
2018-12-25T21:24:57.263Z,5.00
2018-12-25T21:27:44.951Z,5.00
2018-12-25T21:30:32.956Z,5.00
2018-12-25T21:33:21.054Z,4.90
2018-12-25T21:35:49.855Z,4.90
2018-12-25T21:38:38.176Z,4.80
2018-12-25T21:41:48.403Z,4.90
2018-12-25T21:44:36.914Z,4.90
2018-12-25T21:47:25.023Z,4.80
2018-12-25T21:50:13.163Z,4.90
2018-12-25T21:53:01.196Z,4.70
2018-12-25T21:55:41.817Z,4.60
2018-12-25T21:58:10.719Z,4.60
2018-12-25T22:00:58.974Z,4.60
2018-12-25T22:03:47.099Z,4.50
2018-12-25T22:06:35.558Z,4.40
2018-12-25T22:12:30.717Z,4.50
2018-12-25T22:15:19.050Z,4.40
2018-12-25T22:20:55.478Z,4.50
2018-12-25T22:23:43.522Z,4.50
2018-12-25T22:26:31.942Z,4.30
2018-12-25T22:29:19.949Z,4.30
2018-12-25T22:32:08.370Z,4.20
2018-12-25T22:34:56.440Z,4.10
2018-12-25T22:38:03.779Z,4.10
2018-12-25T22:40:51.971Z,4.10
2018-12-25T22:43:39.998Z,4.00
2018-12-25T22:49:02.405Z,4.00
2018-12-25T22:51:50.615Z,3.90
2018-12-25T22:54:19.508Z,3.90
2018-12-25T22:59:36.307Z,3.70
2018-12-25T23:02:05.260Z,3.70
2018-12-25T23:04:53.366Z,3.60
2018-12-25T23:07:41.424Z,3.60
2018-12-25T23:10:29.407Z,3.60
2018-12-25T23:13:17.375Z,3.50
2018-12-25T23:16:05.369Z,3.50
2018-12-25T23:18:53.367Z,3.50
2018-12-25T23:21:41.405Z,3.50
2018-12-25T23:24:29.399Z,3.40
2018-12-25T23:27:17.401Z,3.40
2018-12-25T23:30:05.714Z,3.40
2018-12-25T23:32:53.736Z,3.40
2018-12-25T23:35:41.751Z,3.20
2018-12-25T23:38:29.751Z,3.30
2018-12-25T23:41:17.777Z,3.20
2018-12-25T23:44:05.751Z,3.20
2018-12-25T23:46:53.735Z,3.20
2018-12-25T23:49:41.757Z,3.20
2018-12-25T23:52:29.753Z,3.10
2018-12-25T23:55:10.203Z,3.00
2018-12-25T23:57:51.051Z,3.00
